createdAt,value
2018-06-29T00:00:18.291Z,39.00
2018-06-29T00:02:47.344Z,38.43
2018-06-29T00:05:16.435Z,39.17
2018-06-29T00:07:45.524Z,42.23
2018-06-29T00:10:22.574Z,40.00
2018-06-29T00:12:52.002Z,40.53
2018-06-29T00:15:21.371Z,36.93
2018-06-29T00:17:50.526Z,43.00
2018-06-29T00:20:19.687Z,41.90
2018-06-29T00:22:48.718Z,47.93
2018-06-29T00:25:17.791Z,42.50
2018-06-29T00:27:46.824Z,39.60
2018-06-29T00:30:15.861Z,38.73
2018-06-29T00:32:44.862Z,40.17
2018-06-29T00:35:13.924Z,37.20
2018-06-29T00:37:42.950Z,41.73
2018-06-29T00:40:12.001Z,34.07
2018-06-29T00:42:41.082Z,33.30
2018-06-29T00:45:10.093Z,37.10
2018-06-29T00:47:39.140Z,38.70
2018-06-29T00:50:08.176Z,34.87
2018-06-29T00:52:37.194Z,39.77
2018-06-29T00:55:06.277Z,38.80
2018-06-29T00:57:35.294Z,40.50
2018-06-29T01:00:07.022Z,31.77
2018-06-29T01:02:36.175Z,34.40
2018-06-29T01:05:05.469Z,37.57
2018-06-29T01:07:34.053Z,35.80
2018-06-29T01:10:03.187Z,35.73
2018-06-29T01:12:32.231Z,38.20
2018-06-29T01:15:01.308Z,35.97
2018-06-29T01:17:30.377Z,30.17
2018-06-29T01:19:59.500Z,41.30
2018-06-29T01:22:28.550Z,38.13
2018-06-29T01:24:57.583Z,41.53
2018-06-29T01:27:26.693Z,35.37
2018-06-29T01:29:55.696Z,36.70
2018-06-29T01:32:24.274Z,37.17
2018-06-29T01:34:52.823Z,38.47
2018-06-29T01:37:21.978Z,40.03
2018-06-29T01:39:51.000Z,40.87
2018-06-29T01:42:20.031Z,35.40
2018-06-29T01:44:48.590Z,45.30
2018-06-29T01:47:17.652Z,39.57
2018-06-29T01:49:46.751Z,40.83
2018-06-29T01:52:15.780Z,43.10
2018-06-29T01:54:44.863Z,42.77
2018-06-29T01:57:13.893Z,42.10
2018-06-29T01:59:42.934Z,43.93
2018-06-29T02:02:12.022Z,40.17
2018-06-29T02:04:41.048Z,40.60
2018-06-29T02:07:10.087Z,39.80
2018-06-29T02:09:39.094Z,40.27
2018-06-29T02:12:08.242Z,40.10
2018-06-29T02:14:37.234Z,37.30
2018-06-29T02:17:06.258Z,35.30
2018-06-29T02:19:35.287Z,42.37
2018-06-29T02:22:04.388Z,39.30
2018-06-29T02:24:33.398Z,41.10
2018-06-29T02:27:02.501Z,38.63
2018-06-29T02:29:31.586Z,38.17
2018-06-29T02:32:00.581Z,34.50
2018-06-29T02:34:29.601Z,39.80
2018-06-29T02:36:58.628Z,36.90
2018-06-29T02:39:27.680Z,40.73
2018-06-29T02:41:56.673Z,37.37
2018-06-29T02:44:25.752Z,34.83
2018-06-29T02:46:54.799Z,38.60
2018-06-29T02:49:23.879Z,38.00
2018-06-29T02:51:52.896Z,38.03
2018-06-29T02:54:21.948Z,39.40
2018-06-29T02:56:51.005Z,38.13
2018-06-29T02:59:20.012Z,41.43
2018-06-29T03:01:49.080Z,37.67
2018-06-29T03:04:18.087Z,38.77
2018-06-29T03:06:47.136Z,37.70
2018-06-29T03:09:16.200Z,39.63
2018-06-29T03:11:45.318Z,38.90
2018-06-29T03:14:14.388Z,42.03
2018-06-29T03:16:43.476Z,41.73
2018-06-29T03:19:12.493Z,33.70
2018-06-29T03:21:41.592Z,42.50
2018-06-29T03:24:10.669Z,37.20
2018-06-29T03:26:39.715Z,39.60
2018-06-29T03:29:08.769Z,42.93
2018-06-29T03:31:37.792Z,38.43
2018-06-29T03:34:06.823Z,41.20
2018-06-29T03:36:35.859Z,34.80
2018-06-29T03:39:06.577Z,35.87
2018-06-29T03:41:35.691Z,40.30
2018-06-29T03:44:05.952Z,39.70
2018-06-29T03:46:35.318Z,41.30
2018-06-29T03:49:04.388Z,34.80
2018-06-29T03:51:33.394Z,39.50
2018-06-29T03:54:02.474Z,40.83
2018-06-29T03:56:31.485Z,34.97
2018-06-29T03:59:00.683Z,38.13
2018-06-29T04:01:30.659Z,38.80
2018-06-29T04:03:59.715Z,39.20
2018-06-29T04:06:28.713Z,43.77
2018-06-29T04:08:57.742Z,45.20
2018-06-29T04:11:26.797Z,46.13
2018-06-29T04:13:55.976Z,44.80
2018-06-29T04:16:25.040Z,40.60
2018-06-29T04:18:54.123Z,47.73
2018-06-29T04:21:23.187Z,43.10
2018-06-29T04:23:52.250Z,45.07
2018-06-29T04:26:21.351Z,44.50
2018-06-29T04:28:50.408Z,46.30
2018-06-29T04:31:19.451Z,47.30
2018-06-29T04:33:48.466Z,46.90
2018-06-29T04:36:17.614Z,48.17
2018-06-29T04:38:46.772Z,45.27
2018-06-29T04:41:15.825Z,45.63
2018-06-29T04:43:44.861Z,43.83
2018-06-29T04:46:13.887Z,44.00
2018-06-29T04:48:42.928Z,44.07
2018-06-29T04:51:11.970Z,43.70
2018-06-29T04:53:41.008Z,41.53
2018-06-29T04:56:10.012Z,43.57
2018-06-29T04:58:39.055Z,45.80
2018-06-29T05:01:08.122Z,47.47
2018-06-29T05:03:37.160Z,49.60
2018-06-29T05:06:06.370Z,43.67
2018-06-29T05:08:35.421Z,46.80
2018-06-29T05:11:04.571Z,47.30
2018-06-29T05:13:33.590Z,42.00
2018-06-29T05:16:02.591Z,45.67
2018-06-29T05:18:31.614Z,44.20
2018-06-29T05:21:00.679Z,41.30
2018-06-29T05:23:29.735Z,42.03
2018-06-29T05:25:58.805Z,41.77
2018-06-29T05:28:27.880Z,44.93
2018-06-29T05:30:56.893Z,45.93
2018-06-29T05:33:25.922Z,40.73
2018-06-29T05:35:55.042Z,40.03
2018-06-29T05:38:24.019Z,41.73
2018-06-29T05:40:53.127Z,39.10
2018-06-29T05:43:22.167Z,45.23
2018-06-29T05:45:51.226Z,42.20
2018-06-29T05:48:20.292Z,42.73
2018-06-29T05:50:49.278Z,36.80
2018-06-29T05:53:19.217Z,43.10
2018-06-29T05:55:48.219Z,41.00
2018-06-29T05:58:16.797Z,44.40
2018-06-29T06:00:45.919Z,40.00
2018-06-29T06:03:14.971Z,36.90
2018-06-29T06:05:44.563Z,36.07
2018-06-29T06:08:13.582Z,40.67
2018-06-29T06:10:42.664Z,45.90
2018-06-29T06:13:11.675Z,42.97
2018-06-29T06:15:40.767Z,42.60
2018-06-29T06:18:09.769Z,41.13
2018-06-29T06:20:38.854Z,42.27
2018-06-29T06:23:16.759Z,39.67
2018-06-29T06:25:45.994Z,44.07
2018-06-29T06:28:15.112Z,39.50
2018-06-29T06:30:44.199Z,43.77
2018-06-29T06:33:13.380Z,47.10
2018-06-29T06:35:42.655Z,40.17
2018-06-29T06:38:11.831Z,44.07
2018-06-29T06:40:40.896Z,43.70
2018-06-29T06:43:10.180Z,47.27
2018-06-29T06:45:39.184Z,43.30
2018-06-29T06:48:08.275Z,39.60
2018-06-29T06:50:37.295Z,38.40
2018-06-29T06:53:06.380Z,42.20
2018-06-29T06:55:35.455Z,42.30
2018-06-29T06:58:04.512Z,41.50
2018-06-29T07:00:33.575Z,38.70
2018-06-29T07:03:02.572Z,36.90
2018-06-29T07:05:31.631Z,39.53
2018-06-29T07:08:00.689Z,39.77
2018-06-29T07:10:30.116Z,40.47
2018-06-29T07:12:59.167Z,39.83
2018-06-29T07:15:28.171Z,40.23
2018-06-29T07:17:57.220Z,36.30
2018-06-29T07:20:26.254Z,39.40
2018-06-29T07:22:55.312Z,33.97
2018-06-29T07:25:24.397Z,38.23
2018-06-29T07:27:53.455Z,37.57
2018-06-29T07:30:22.484Z,36.67
2018-06-29T07:32:51.487Z,34.77
2018-06-29T07:35:20.505Z,34.27
2018-06-29T07:37:49.482Z,37.40
2018-06-29T07:40:18.540Z,31.40
2018-06-29T07:42:47.562Z,36.27
2018-06-29T07:45:16.604Z,36.07
2018-06-29T07:47:45.604Z,31.97
2018-06-29T07:50:14.659Z,34.60
2018-06-29T07:52:43.731Z,33.10
2018-06-29T07:55:12.817Z,32.77
2018-06-29T07:57:41.810Z,32.00
2018-06-29T08:00:10.859Z,31.10
2018-06-29T08:02:39.962Z,32.67
2018-06-29T08:05:09.037Z,30.10
2018-06-29T08:07:38.051Z,31.07
2018-06-29T08:10:08.051Z,31.60
2018-06-29T08:12:37.137Z,30.80
2018-06-29T08:15:06.173Z,32.60
2018-06-29T08:17:35.224Z,34.47
2018-06-29T08:20:04.269Z,34.50
2018-06-29T08:22:33.343Z,32.03
2018-06-29T08:25:13.133Z,30.67
2018-06-29T08:27:42.262Z,32.87
2018-06-29T08:30:12.237Z,30.30
2018-06-29T08:32:41.283Z,33.87
2018-06-29T08:35:10.940Z,33.27
2018-06-29T08:37:40.391Z,32.20
2018-06-29T08:40:10.258Z,31.23
2018-06-29T08:42:39.384Z,31.73
2018-06-29T08:45:09.309Z,33.33
2018-06-29T08:47:38.337Z,33.63
2018-06-29T08:50:06.963Z,33.00
2018-06-29T08:52:36.009Z,28.67
2018-06-29T08:55:05.967Z,32.07
2018-06-29T08:57:35.069Z,33.10
2018-06-29T09:00:05.196Z,36.30
2018-06-29T09:02:34.200Z,33.10
2018-06-29T09:05:03.323Z,31.33
2018-06-29T09:07:32.383Z,29.83
2018-06-29T09:10:01.396Z,32.57
2018-06-29T09:12:30.754Z,33.27
2018-06-29T09:14:59.875Z,30.37
2018-06-29T09:17:28.923Z,33.33
2018-06-29T09:19:57.945Z,30.07
2018-06-29T09:22:26.982Z,32.07
2018-06-29T09:24:55.968Z,33.60
2018-06-29T09:27:25.005Z,32.67
2018-06-29T09:29:54.067Z,31.57
2018-06-29T09:32:23.117Z,29.30
2018-06-29T09:34:52.142Z,30.97
2018-06-29T09:37:21.157Z,30.43
2018-06-29T09:39:50.194Z,32.27
2018-06-29T09:42:19.220Z,32.47
2018-06-29T09:44:48.284Z,34.80
2018-06-29T09:47:17.306Z,33.97
2018-06-29T09:49:45.961Z,37.27
2018-06-29T09:52:15.017Z,38.03
2018-06-29T09:54:44.068Z,35.80
2018-06-29T09:57:13.192Z,37.13
2018-06-29T09:59:42.237Z,30.40
2018-06-29T10:02:11.432Z,31.20
2018-06-29T10:04:40.443Z,31.03
2018-06-29T10:07:09.495Z,38.60
2018-06-29T10:09:38.524Z,37.40
2018-06-29T10:12:07.670Z,35.17
2018-06-29T10:14:36.757Z,38.73
2018-06-29T10:17:05.858Z,36.13
2018-06-29T10:19:35.009Z,36.87
2018-06-29T10:22:04.224Z,36.73
2018-06-29T10:24:33.246Z,33.30
2018-06-29T10:27:02.278Z,36.80
2018-06-29T10:29:31.432Z,37.17
2018-06-29T10:32:00.477Z,36.40
2018-06-29T10:34:29.491Z,33.00
2018-06-29T10:36:58.510Z,34.67
2018-06-29T10:39:27.558Z,31.40
2018-06-29T10:41:56.975Z,34.67
2018-06-29T10:44:26.019Z,31.90
2018-06-29T10:46:55.039Z,32.50
2018-06-29T10:49:24.162Z,35.50
2018-06-29T10:51:53.173Z,32.90
2018-06-29T10:54:22.238Z,29.30
2018-06-29T10:56:51.218Z,35.43
2018-06-29T10:59:20.264Z,35.60
2018-06-29T11:01:49.314Z,36.00
2018-06-29T11:04:18.319Z,35.70
2018-06-29T11:06:47.340Z,33.90
2018-06-29T11:09:16.368Z,36.93
2018-06-29T11:11:45.390Z,35.90
2018-06-29T11:14:14.437Z,33.13
2018-06-29T11:16:43.454Z,40.70
2018-06-29T11:19:12.494Z,34.93
2018-06-29T11:21:41.536Z,39.00
2018-06-29T11:24:10.583Z,35.53
2018-06-29T11:26:39.668Z,38.03
2018-06-29T11:29:08.739Z,38.57
2018-06-29T11:31:37.758Z,31.87
2018-06-29T11:34:06.851Z,37.20
2018-06-29T11:36:36.008Z,38.30
2018-06-29T11:39:07.363Z,37.00
2018-06-29T11:41:36.430Z,37.20
2018-06-29T11:44:05.035Z,36.10
2018-06-29T11:46:34.096Z,39.90
2018-06-29T11:49:03.146Z,40.33
2018-06-29T11:51:32.273Z,36.17
2018-06-29T11:54:01.300Z,35.70
2018-06-29T11:56:30.333Z,35.60
2018-06-29T11:58:59.358Z,35.23
2018-06-29T12:01:28.363Z,37.00
2018-06-29T12:03:57.436Z,38.30
2018-06-29T12:06:26.454Z,34.03
2018-06-29T12:08:55.506Z,33.60
2018-06-29T12:11:24.547Z,35.83
2018-06-29T12:13:53.580Z,36.20
2018-06-29T12:16:22.629Z,33.43
2018-06-29T12:18:51.665Z,34.10
2018-06-29T12:21:20.706Z,37.73
2018-06-29T12:23:49.708Z,39.10
2018-06-29T12:26:18.775Z,37.60
2018-06-29T12:28:47.827Z,37.40
2018-06-29T12:31:17.460Z,33.80
2018-06-29T12:33:46.502Z,34.63
2018-06-29T12:36:15.511Z,35.47
2018-06-29T12:38:44.558Z,31.90
2018-06-29T12:41:13.635Z,35.63
2018-06-29T12:43:42.755Z,34.60
2018-06-29T12:46:11.777Z,39.60
2018-06-29T12:48:40.824Z,34.20
2018-06-29T12:51:09.855Z,35.13
2018-06-29T12:53:38.870Z,30.63
2018-06-29T12:56:07.944Z,32.20
2018-06-29T12:58:36.962Z,32.80
2018-06-29T13:01:06.051Z,29.33
2018-06-29T13:03:35.063Z,32.57
2018-06-29T13:06:04.166Z,32.90
2018-06-29T13:08:33.176Z,30.63
2018-06-29T13:11:02.220Z,29.73
2018-06-29T13:13:31.673Z,26.60
2018-06-29T13:16:00.727Z,30.40
2018-06-29T13:18:29.803Z,33.40
2018-06-29T13:20:58.808Z,27.57
2018-06-29T13:23:27.927Z,28.20
2018-06-29T13:25:57.005Z,29.80
2018-06-29T13:28:26.195Z,29.57
2018-06-29T13:30:55.401Z,28.57
2018-06-29T13:33:24.051Z,26.23
2018-06-29T13:35:53.157Z,25.83
2018-06-29T13:38:22.192Z,27.70
2018-06-29T13:40:51.234Z,27.07
2018-06-29T13:43:20.234Z,27.03
2018-06-29T13:45:49.251Z,25.10
2018-06-29T13:48:18.356Z,24.70
2018-06-29T13:50:47.395Z,25.07
2018-06-29T13:53:16.483Z,28.30
2018-06-29T13:55:45.756Z,26.63
2018-06-29T13:58:14.839Z,25.73
2018-06-29T14:00:43.884Z,21.40
2018-06-29T14:03:12.918Z,23.37
2018-06-29T14:05:41.977Z,20.60
2018-06-29T14:08:11.004Z,22.90
2018-06-29T14:10:40.147Z,22.97
2018-06-29T14:13:09.191Z,23.37
2018-06-29T14:15:38.241Z,22.87
2018-06-29T14:18:07.577Z,23.67
2018-06-29T14:20:36.638Z,20.70
2018-06-29T14:23:05.706Z,22.83
2018-06-29T14:25:34.697Z,22.27
2018-06-29T14:28:03.720Z,21.93
2018-06-29T14:30:32.726Z,22.70
2018-06-29T14:33:02.003Z,24.13
2018-06-29T14:35:31.064Z,23.03
2018-06-29T14:38:01.015Z,22.60
2018-06-29T14:40:30.022Z,23.73
2018-06-29T14:42:59.050Z,20.90
2018-06-29T14:45:28.133Z,22.60
2018-06-29T14:47:56.713Z,21.67
2018-06-29T14:50:25.820Z,20.93
2018-06-29T14:52:54.838Z,23.77
2018-06-29T14:55:23.962Z,20.67
2018-06-29T14:57:52.993Z,20.80
2018-06-29T15:00:22.120Z,19.80
2018-06-29T15:02:51.137Z,17.27
2018-06-29T15:05:20.200Z,20.77
2018-06-29T15:07:49.220Z,19.30
2018-06-29T15:10:18.287Z,21.00
2018-06-29T15:12:47.284Z,19.07
2018-06-29T15:15:16.441Z,22.47
2018-06-29T15:17:45.496Z,21.83
2018-06-29T15:20:14.520Z,24.13
2018-06-29T15:22:43.585Z,20.37
2018-06-29T15:25:12.684Z,19.67
2018-06-29T15:27:41.735Z,19.97
2018-06-29T15:30:10.767Z,20.60
2018-06-29T15:32:39.820Z,19.97
2018-06-29T15:35:08.993Z,18.33
2018-06-29T15:37:38.115Z,19.13
2018-06-29T15:40:07.231Z,18.73
2018-06-29T15:42:36.355Z,18.63
2018-06-29T15:45:06.384Z,19.53
2018-06-29T15:47:35.413Z,18.30
2018-06-29T15:50:05.001Z,19.30
2018-06-29T15:52:34.082Z,20.97
2018-06-29T15:55:03.169Z,19.00
2018-06-29T15:57:32.225Z,22.50
2018-06-29T16:00:01.282Z,20.23
2018-06-29T16:02:30.327Z,17.90
2018-06-29T16:04:59.390Z,20.60
2018-06-29T16:07:28.407Z,16.77
2018-06-29T16:09:57.436Z,18.20
2018-06-29T16:12:26.475Z,19.80
2018-06-29T16:14:55.538Z,19.70
2018-06-29T16:17:24.531Z,17.90
2018-06-29T16:19:53.580Z,19.67
2018-06-29T16:22:22.769Z,17.83
2018-06-29T16:24:51.814Z,19.63
2018-06-29T16:27:20.910Z,19.60
2018-06-29T16:29:49.947Z,19.13
2018-06-29T16:32:18.982Z,18.17
2018-06-29T16:34:48.039Z,16.20
2018-06-29T16:37:17.332Z,18.13
2018-06-29T16:39:46.327Z,15.80
2018-06-29T16:42:15.489Z,15.50
2018-06-29T16:44:44.526Z,16.20
2018-06-29T16:47:13.611Z,18.60
2018-06-29T16:49:42.731Z,20.30
2018-06-29T16:52:11.740Z,17.33
2018-06-29T16:54:40.809Z,15.17
2018-06-29T16:57:09.859Z,16.00
2018-06-29T16:59:38.935Z,17.90
2018-06-29T17:02:07.981Z,16.50
2018-06-29T17:04:36.539Z,18.80
2018-06-29T17:07:05.561Z,20.93
2018-06-29T17:09:34.623Z,20.50
2018-06-29T17:12:03.730Z,21.20
2018-06-29T17:14:32.779Z,20.13
2018-06-29T17:17:01.910Z,20.50
2018-06-29T17:19:31.108Z,20.67
2018-06-29T17:22:00.187Z,19.53
2018-06-29T17:24:29.287Z,17.97
2018-06-29T17:26:58.454Z,19.83
2018-06-29T17:29:27.524Z,21.23
2018-06-29T17:31:56.604Z,20.60
2018-06-29T17:34:25.704Z,20.57
2018-06-29T17:36:54.775Z,19.93
2018-06-29T17:39:23.890Z,20.40
2018-06-29T17:41:52.973Z,18.43
2018-06-29T17:44:22.129Z,21.40
2018-06-29T17:46:51.168Z,19.43
2018-06-29T17:49:20.315Z,19.80
2018-06-29T17:51:49.623Z,17.63
2018-06-29T17:54:18.807Z,18.20
2018-06-29T17:56:47.896Z,18.70
2018-06-29T17:59:17.235Z,17.63
2018-06-29T18:01:46.437Z,18.57
2018-06-29T18:04:15.567Z,17.60
2018-06-29T18:06:44.721Z,18.10
2018-06-29T18:09:13.780Z,23.70
2018-06-29T18:11:43.421Z,19.90
2018-06-29T18:14:12.794Z,18.23
2018-06-29T18:16:41.854Z,19.23
2018-06-29T18:19:10.937Z,18.27
2018-06-29T18:21:40.088Z,18.60
2018-06-29T18:24:09.214Z,19.23
2018-06-29T18:26:38.266Z,19.13
2018-06-29T18:29:07.481Z,19.30
2018-06-29T18:31:36.740Z,20.73
2018-06-29T18:34:06.369Z,19.37
2018-06-29T18:36:35.596Z,19.97
2018-06-29T18:39:06.766Z,19.23
2018-06-29T18:41:35.945Z,20.43
2018-06-29T18:44:05.189Z,18.27
2018-06-29T18:46:34.328Z,18.67
2018-06-29T18:49:03.433Z,18.47
2018-06-29T18:51:32.584Z,16.73
2018-06-29T18:54:01.707Z,19.27
2018-06-29T18:56:30.735Z,21.47
2018-06-29T18:58:59.932Z,21.47
2018-06-29T19:01:29.059Z,21.20
2018-06-29T19:03:58.183Z,20.60
2018-06-29T19:06:27.300Z,21.97
2018-06-29T19:08:56.432Z,22.17
2018-06-29T19:11:25.575Z,22.30
2018-06-29T19:13:54.199Z,19.20
2018-06-29T19:16:23.383Z,21.23
2018-06-29T19:18:52.531Z,22.40
2018-06-29T19:21:21.615Z,21.73
2018-06-29T19:23:50.765Z,20.73
2018-06-29T19:26:19.973Z,20.90
2018-06-29T19:28:49.089Z,22.10
2018-06-29T19:31:18.379Z,22.30
2018-06-29T19:33:47.519Z,21.90
2018-06-29T19:36:16.612Z,23.83
2018-06-29T19:38:45.762Z,23.30
2018-06-29T19:41:14.978Z,22.07
2018-06-29T19:43:44.137Z,21.30
2018-06-29T19:46:13.287Z,21.07
2018-06-29T19:48:42.534Z,22.80
2018-06-29T19:51:11.767Z,22.87
2018-06-29T19:53:40.879Z,22.83
2018-06-29T19:56:09.992Z,23.07
2018-06-29T19:58:39.079Z,24.17
2018-06-29T20:01:08.819Z,24.80
2018-06-29T20:03:37.953Z,22.30
2018-06-29T20:06:07.077Z,19.50
2018-06-29T20:08:36.300Z,19.17
2018-06-29T20:11:05.488Z,23.60
2018-06-29T20:13:34.727Z,22.13
2018-06-29T20:16:03.973Z,22.83
2018-06-29T20:18:33.235Z,22.10
2018-06-29T20:21:02.296Z,23.47
2018-06-29T20:23:31.432Z,23.03
2018-06-29T20:26:01.380Z,26.20
2018-06-29T20:28:30.580Z,24.13
2018-06-29T20:30:59.792Z,23.80
2018-06-29T20:33:28.967Z,23.90
2018-06-29T20:35:58.071Z,22.10
2018-06-29T20:38:27.233Z,23.03
2018-06-29T20:40:56.307Z,23.93
2018-06-29T20:43:25.361Z,22.70
2018-06-29T20:45:54.465Z,24.00
2018-06-29T20:48:23.557Z,23.33
2018-06-29T20:50:52.592Z,24.00
2018-06-29T20:53:21.700Z,22.83
2018-06-29T20:55:55.662Z,25.07
2018-06-29T20:58:25.300Z,23.50
2018-06-29T21:00:55.251Z,23.57
2018-06-29T21:03:25.819Z,22.80
2018-06-29T21:05:55.303Z,22.50
2018-06-29T21:08:25.638Z,20.20
2018-06-29T21:10:55.020Z,24.27
2018-06-29T21:13:25.479Z,23.90
2018-06-29T21:15:54.878Z,22.60
2018-06-29T21:18:25.006Z,21.80
2018-06-29T21:20:55.416Z,23.80
2018-06-29T21:23:26.023Z,24.17
2018-06-29T21:25:55.195Z,23.97
2018-06-29T21:28:24.340Z,23.67
2018-06-29T21:30:53.442Z,24.13
2018-06-29T21:33:24.438Z,23.10
2018-06-29T21:35:54.664Z,22.30
2018-06-29T21:38:23.707Z,23.30
2018-06-29T21:40:52.906Z,24.90
2018-06-29T21:43:23.180Z,26.60
2018-06-29T21:45:53.444Z,24.67
2018-06-29T21:48:22.805Z,23.20
2018-06-29T21:50:51.830Z,24.30
2018-06-29T21:53:20.911Z,23.97
2018-06-29T21:55:49.923Z,23.57
2018-06-29T21:58:18.531Z,25.03
2018-06-29T22:00:47.554Z,26.13
2018-06-29T22:03:16.638Z,27.50
2018-06-29T22:05:45.803Z,24.17
2018-06-29T22:08:14.900Z,23.87
2018-06-29T22:10:44.502Z,22.90
2018-06-29T22:13:13.578Z,22.50
2018-06-29T22:15:42.681Z,24.73
2018-06-29T22:18:11.795Z,25.23
2018-06-29T22:20:40.951Z,25.00
2018-06-29T22:23:10.004Z,25.30
2018-06-29T22:25:39.136Z,25.70
2018-06-29T22:28:08.181Z,24.90
2018-06-29T22:30:37.232Z,24.33
2018-06-29T22:33:06.698Z,22.23
2018-06-29T22:35:35.765Z,24.20
2018-06-29T22:38:04.927Z,23.20
2018-06-29T22:40:33.998Z,25.00
2018-06-29T22:43:03.122Z,26.00
2018-06-29T22:45:32.186Z,26.03
2018-06-29T22:48:01.260Z,26.70
2018-06-29T22:50:30.259Z,25.63
2018-06-29T22:52:59.313Z,24.90
2018-06-29T22:55:28.387Z,25.07
2018-06-29T22:57:57.445Z,25.30
2018-06-29T23:00:27.156Z,24.90
2018-06-29T23:03:04.395Z,23.67
2018-06-29T23:05:33.475Z,25.47
2018-06-29T23:08:02.503Z,24.03
2018-06-29T23:10:31.567Z,22.70
2018-06-29T23:13:00.606Z,23.10
2018-06-29T23:15:29.638Z,26.43
2018-06-29T23:17:58.908Z,26.20
2018-06-29T23:20:27.957Z,23.53
2018-06-29T23:22:57.092Z,25.80
2018-06-29T23:25:26.105Z,27.80
2018-06-29T23:27:55.158Z,25.13
2018-06-29T23:30:24.212Z,24.87
2018-06-29T23:32:53.248Z,23.13
2018-06-29T23:35:22.310Z,24.57
2018-06-29T23:37:51.350Z,22.27
2018-06-29T23:40:20.394Z,24.00
2018-06-29T23:42:49.407Z,23.10
2018-06-29T23:45:18.504Z,22.30
2018-06-29T23:47:47.514Z,22.53
2018-06-29T23:50:16.528Z,23.73
2018-06-29T23:52:45.590Z,22.90
2018-06-29T23:55:14.638Z,23.07
2018-06-29T23:57:43.720Z,24.80
